Аэропорт: Витебск Восточный. Витебск

ICAO: UMII

METAR:
2019/03/26 13:00
UMII 261300Z 27006G09MPS 9999 BKN040 03/M06 Q1007 R23/CLRD// TEMPO 2000 RASN BKN005
METAR:
2018/01/28 15:24
TAF TAF UMII 281405Z 2815/2924 19004G09MPS 2000 SN BR OVC005 
      TEMPO 2815/2824 0500 FZDZ FZFG VV002